sensor_id;sensor_type;location;lat;lon;timestamp;pressure;altitude;pressure_sealevel;temperature;humidity
82743;BME280;72483;50.656;7.216;2024-01-30T00:00:25;102227.56;;;18.99;43.27
82743;BME280;72483;50.656;7.216;2024-01-30T00:02:52;102226.47;;;19.00;43.53
82743;BME280;72483;50.656;7.216;2024-01-30T00:05:19;102227.25;;;18.96;43.58
82743;BME280;72483;50.656;7.216;2024-01-30T00:07:47;102228.59;;;18.93;43.34
82743;BME280;72483;50.656;7.216;2024-01-30T00:10:14;102225.81;;;18.93;43.55
82743;BME280;72483;50.656;7.216;2024-01-30T00:12:40;102232.50;;;18.92;43.73
82743;BME280;72483;50.656;7.216;2024-01-30T00:15:07;102228.00;;;18.91;43.26
82743;BME280;72483;50.656;7.216;2024-01-30T00:17:35;102230.22;;;18.89;43.55
82743;BME280;72483;50.656;7.216;2024-01-30T00:20:02;102225.72;;;18.88;43.67
82743;BME280;72483;50.656;7.216;2024-01-30T00:22:30;102227.41;;;18.89;43.66
82743;BME280;72483;50.656;7.216;2024-01-30T00:24:59;102226.84;;;18.87;43.15
82743;BME280;72483;50.656;7.216;2024-01-30T00:27:26;102218.72;;;18.86;43.33
82743;BME280;72483;50.656;7.216;2024-01-30T00:29:53;102217.88;;;18.85;43.62
82743;BME280;72483;50.656;7.216;2024-01-30T00:32:19;102220.94;;;18.84;43.43
82743;BME280;72483;50.656;7.216;2024-01-30T00:34:46;102213.66;;;18.83;43.29
82743;BME280;72483;50.656;7.216;2024-01-30T00:37:12;102207.22;;;18.82;43.52
82743;BME280;72483;50.656;7.216;2024-01-30T00:39:39;102212.78;;;18.82;43.00
82743;BME280;72483;50.656;7.216;2024-01-30T00:42:07;102210.00;;;18.82;42.96
82743;BME280;72483;50.656;7.216;2024-01-30T00:44:35;102209.44;;;18.80;43.14
82743;BME280;72483;50.656;7.216;2024-01-30T00:47:02;102212.47;;;18.79;43.38
82743;BME280;72483;50.656;7.216;2024-01-30T00:49:29;102204.34;;;18.77;43.49
82743;BME280;72483;50.656;7.216;2024-01-30T00:51:56;102219.16;;;18.78;42.92
82743;BME280;72483;50.656;7.216;2024-01-30T00:54:23;102206.31;;;18.77;43.24
82743;BME280;72483;50.656;7.216;2024-01-30T00:56:49;102213.81;;;18.76;42.94
82743;BME280;72483;50.656;7.216;2024-01-30T00:59:18;102212.97;;;18.76;43.36
82743;BME280;72483;50.656;7.216;2024-01-30T01:01:44;102199.88;;;18.76;42.89
82743;BME280;72483;50.656;7.216;2024-01-30T01:04:11;102205.72;;;18.75;43.18
82743;BME280;72483;50.656;7.216;2024-01-30T01:06:38;102203.78;;;18.75;43.37
82743;BME280;72483;50.656;7.216;2024-01-30T01:09:08;102200.13;;;18.75;42.83
82743;BME280;72483;50.656;7.216;2024-01-30T01:11:34;102212.97;;;18.76;43.32
82743;BME280;72483;50.656;7.216;2024-01-30T01:14:01;102206.56;;;18.75;42.90
82743;BME280;72483;50.656;7.216;2024-01-30T01:16:29;102207.38;;;18.76;42.89
82743;BME280;72483;50.656;7.216;2024-01-30T01:18:56;102200.13;;;18.75;42.66
82743;BME280;72483;50.656;7.216;2024-01-30T01:21:23;102200.38;;;18.73;42.91
82743;BME280;72483;50.656;7.216;2024-01-30T01:23:50;102207.06;;;18.72;43.30
82743;BME280;72483;50.656;7.216;2024-01-30T01:26:16;102205.97;;;18.73;43.17
82743;BME280;72483;50.656;7.216;2024-01-30T01:28:43;102200.38;;;18.73;43.16
82743;BME280;72483;50.656;7.216;2024-01-30T01:31:10;102202.59;;;18.71;42.81
82743;BME280;72483;50.656;7.216;2024-01-30T01:33:38;102197.88;;;18.72;42.80
82743;BME280;72483;50.656;7.216;2024-01-30T01:36:05;102199.81;;;18.71;43.01
82743;BME280;72483;50.656;7.216;2024-01-30T01:38:32;102205.38;;;18.71;43.03
82743;BME280;72483;50.656;7.216;2024-01-30T01:40:59;102201.75;;;18.71;42.92
82743;BME280;72483;50.656;7.216;2024-01-30T01:43:25;102196.41;;;18.69;42.62
82743;BME280;72483;50.656;7.216;2024-01-30T01:45:52;102200.91;;;18.70;42.96
82743;BME280;72483;50.656;7.216;2024-01-30T01:48:19;102194.47;;;18.70;43.04
82743;BME280;72483;50.656;7.216;2024-01-30T01:50:48;102198.09;;;18.70;42.63
82743;BME280;72483;50.656;7.216;2024-01-30T01:53:15;102198.94;;;18.71;42.90
82743;BME280;72483;50.656;7.216;2024-01-30T01:55:43;102203.69;;;18.70;42.51
82743;BME280;72483;50.656;7.216;2024-01-30T01:58:09;102202.84;;;18.70;42.62
82743;BME280;72483;50.656;7.216;2024-01-30T02:00:39;102200.91;;;18.70;42.61
82743;BME280;72483;50.656;7.216;2024-01-30T02:03:08;102201.16;;;18.69;42.52
82743;BME280;72483;50.656;7.216;2024-01-30T02:05:37;102202.84;;;18.70;42.99
82743;BME280;72483;50.656;7.216;2024-01-30T02:08:06;102199.19;;;18.69;42.94
82743;BME280;72483;50.656;7.216;2024-01-30T02:10:33;102202.00;;;18.69;42.93
82743;BME280;72483;50.656;7.216;2024-01-30T02:13:00;102203.09;;;18.68;42.54
82743;BME280;72483;50.656;7.216;2024-01-30T02:15:27;102199.47;;;18.68;42.87
82743;BME280;72483;50.656;7.216;2024-01-30T02:17:54;102197.53;;;18.68;42.71
82743;BME280;72483;50.656;7.216;2024-01-30T02:20:21;102193.88;;;18.68;42.88
82743;BME280;72483;50.656;7.216;2024-01-30T02:22:50;102193.88;;;18.68;42.74
82743;BME280;72483;50.656;7.216;2024-01-30T02:25:18;102192.19;;;18.67;42.46
82743;BME280;72483;50.656;7.216;2024-01-30T02:27:45;102188.31;;;18.68;42.47
82743;BME280;72483;50.656;7.216;2024-01-30T02:30:12;102193.03;;;18.67;42.87
82743;BME280;72483;50.656;7.216;2024-01-30T02:32:39;102196.69;;;18.68;42.78
82743;BME280;72483;50.656;7.216;2024-01-30T02:35:06;102193.03;;;18.67;42.83
82743;BME280;72483;50.656;7.216;2024-01-30T02:37:33;102186.59;;;18.67;42.31
82743;BME280;72483;50.656;7.216;2024-01-30T02:40:01;102188.53;;;18.66;42.45
82743;BME280;72483;50.656;7.216;2024-01-30T02:42:27;102177.66;;;18.64;42.38
82743;BME280;72483;50.656;7.216;2024-01-30T02:44:54;102188.81;;;18.64;42.51
82743;BME280;72483;50.656;7.216;2024-01-30T02:47:20;102183.22;;;18.64;42.70
82743;BME280;72483;50.656;7.216;2024-01-30T02:49:47;102187.97;;;18.64;42.86
82743;BME280;72483;50.656;7.216;2024-01-30T02:52:13;102189.66;;;18.65;42.22
82743;BME280;72483;50.656;7.216;2024-01-30T02:54:40;102183.22;;;18.64;42.81
82743;BME280;72483;50.656;7.216;2024-01-30T02:57:08;102174.88;;;18.64;42.77
82743;BME280;72483;50.656;7.216;2024-01-30T02:59:34;102173.16;;;18.63;42.70
82743;BME280;72483;50.656;7.216;2024-01-30T03:02:01;102173.16;;;18.63;42.68
82743;BME280;72483;50.656;7.216;2024-01-30T03:04:27;102176.81;;;18.64;42.22
82743;BME280;72483;50.656;7.216;2024-01-30T03:06:55;102174.00;;;18.64;42.74
82743;BME280;72483;50.656;7.216;2024-01-30T03:09:21;102167.34;;;18.65;42.25
82743;BME280;72483;50.656;7.216;2024-01-30T03:11:48;102166.72;;;18.63;42.56
82743;BME280;72483;50.656;7.216;2024-01-30T03:14:16;102176.81;;;18.64;42.78
82743;BME280;72483;50.656;7.216;2024-01-30T03:16:42;102171.22;;;18.64;42.69
82743;BME280;72483;50.656;7.216;2024-01-30T03:19:09;102164.78;;;18.63;42.68
82743;BME280;72483;50.656;7.216;2024-01-30T03:21:35;102176.81;;;18.64;42.55
82743;BME280;72483;50.656;7.216;2024-01-30T03:24:02;102174.00;;;18.64;42.27
82743;BME280;72483;50.656;7.216;2024-01-30T03:26:29;102173.44;;;18.62;42.54
82743;BME280;72483;50.656;7.216;2024-01-30T03:28:56;102166.16;;;18.61;42.21
82743;BME280;72483;50.656;7.216;2024-01-30T03:31:23;102163.94;;;18.63;42.52
82743;BME280;72483;50.656;7.216;2024-01-30T03:33:50;102160.34;;;18.62;42.35
82743;BME280;72483;50.656;7.216;2024-01-30T03:36:16;102161.16;;;18.63;42.60
82743;BME280;72483;50.656;7.216;2024-01-30T03:38:43;102158.34;;;18.63;42.52
82743;BME280;72483;50.656;7.216;2024-01-30T03:41:09;102165.06;;;18.62;42.54
82743;BME280;72483;50.656;7.216;2024-01-30T03:43:36;102169.53;;;18.63;42.47
82743;BME280;72483;50.656;7.216;2024-01-30T03:46:03;102175.09;;;18.63;42.18
82743;BME280;72483;50.656;7.216;2024-01-30T03:48:31;102162.28;;;18.62;42.54
82743;BME280;72483;50.656;7.216;2024-01-30T03:50:58;102168.94;;;18.61;42.58
82743;BME280;72483;50.656;7.216;2024-01-30T03:53:25;102167.84;;;18.62;42.32
82743;BME280;72483;50.656;7.216;2024-01-30T03:55:52;102159.72;;;18.60;42.35
82743;BME280;72483;50.656;7.216;2024-01-30T03:58:18;102170.03;;;18.60;42.56
82743;BME280;72483;50.656;7.216;2024-01-30T04:00:45;102170.03;;;18.60;42.11
82743;BME280;72483;50.656;7.216;2024-01-30T04:03:11;102170.88;;;18.60;42.58
82743;BME280;72483;50.656;7.216;2024-01-30T04:05:39;102161.66;;;18.60;42.04
82743;BME280;72483;50.656;7.216;2024-01-30T04:08:07;102158.88;;;18.60;42.52
82743;BME280;72483;50.656;7.216;2024-01-30T04:10:33;102164.47;;;18.60;42.50
82743;BME280;72483;50.656;7.216;2024-01-30T04:13:00;102161.66;;;18.60;42.25
82743;BME280;72483;50.656;7.216;2024-01-30T04:15:27;102156.94;;;18.60;42.43
82743;BME280;72483;50.656;7.216;2024-01-30T04:17:57;102164.47;;;18.60;42.29
82743;BME280;72483;50.656;7.216;2024-01-30T04:20:24;102161.09;;;18.58;42.50
82743;BME280;72483;50.656;7.216;2024-01-30T04:22:52;102167.75;;;18.57;42.49
82743;BME280;72483;50.656;7.216;2024-01-30T04:25:18;102161.31;;;18.56;41.96
82743;BME280;72483;50.656;7.216;2024-01-30T04:27:45;102150.44;;;18.55;42.44
82743;BME280;72483;50.656;7.216;2024-01-30T04:30:11;102160.50;;;18.56;42.40
82743;BME280;72483;50.656;7.216;2024-01-30T04:32:38;102162.44;;;18.55;42.35
82743;BME280;72483;50.656;7.216;2024-01-30T04:35:05;102148.75;;;18.54;42.16
82743;BME280;72483;50.656;7.216;2024-01-30T04:37:31;102150.69;;;18.53;42.17
82743;BME280;72483;50.656;7.216;2024-01-30T04:39:59;102142.31;;;18.53;42.51
82743;BME280;72483;50.656;7.216;2024-01-30T04:42:26;102145.38;;;18.52;42.47
82743;BME280;72483;50.656;7.216;2024-01-30T04:44:52;102142.59;;;18.52;42.16
82743;BME280;72483;50.656;7.216;2024-01-30T04:47:19;102140.88;;;18.51;42.51
82743;BME280;72483;50.656;7.216;2024-01-30T04:49:45;102138.09;;;18.51;41.99
82743;BME280;72483;50.656;7.216;2024-01-30T04:52:12;102131.66;;;18.50;42.37
82743;BME280;72483;50.656;7.216;2024-01-30T04:54:38;102138.09;;;18.51;42.04
82743;BME280;72483;50.656;7.216;2024-01-30T04:57:06;102131.66;;;18.50;42.17
82743;BME280;72483;50.656;7.216;2024-01-30T04:59:35;102131.41;;;18.52;41.96
82743;BME280;72483;50.656;7.216;2024-01-30T05:02:01;102142.81;;;18.50;41.93
82743;BME280;72483;50.656;7.216;2024-01-30T05:04:28;102126.69;;;18.52;42.06
82743;BME280;72483;50.656;7.216;2024-01-30T05:06:54;102135.91;;;18.53;42.42
82743;BME280;72483;50.656;7.216;2024-01-30T05:09:21;102144.28;;;18.53;42.07
82743;BME280;72483;50.656;7.216;2024-01-30T05:11:47;102135.91;;;18.53;41.97
82743;BME280;72483;50.656;7.216;2024-01-30T05:14:15;102140.38;;;18.54;42.33
82743;BME280;72483;50.656;7.216;2024-01-30T05:16:43;102134.53;;;18.55;42.13
82743;BME280;72483;50.656;7.216;2024-01-30T05:19:12;102140.97;;;18.56;42.37
82743;BME280;72483;50.656;7.216;2024-01-30T05:21:38;102141.56;;;18.58;41.95
82743;BME280;72483;50.656;7.216;2024-01-30T05:24:05;102144.69;;;18.61;42.21
82743;BME280;72483;50.656;7.216;2024-01-30T05:26:32;102151.69;;;18.64;42.10
82743;BME280;72483;50.656;7.216;2024-01-30T05:28:58;102145.88;;;18.66;42.16
82743;BME280;72483;50.656;7.216;2024-01-30T05:31:26;102152.59;;;18.70;42.35
82743;BME280;72483;50.656;7.216;2024-01-30T05:33:53;102155.72;;;18.73;42.19
82743;BME280;72483;50.656;7.216;2024-01-30T05:36:20;102151.84;;;18.74;41.94
82743;BME280;72483;50.656;7.216;2024-01-30T05:38:47;102148.53;;;18.77;41.78
82743;BME280;72483;50.656;7.216;2024-01-30T05:41:13;102144.38;;;18.80;41.88
82743;BME280;72483;50.656;7.216;2024-01-30T05:43:40;102153.31;;;18.82;42.30
82743;BME280;72483;50.656;7.216;2024-01-30T05:46:08;102148.06;;;18.85;41.92
82743;BME280;72483;50.656;7.216;2024-01-30T05:48:36;102146.72;;;18.88;42.21
82743;BME280;72483;50.656;7.216;2024-01-30T05:51:03;102155.41;;;18.91;41.98
82743;BME280;72483;50.656;7.216;2024-01-30T05:53:30;102154.31;;;18.92;42.22
82743;BME280;72483;50.656;7.216;2024-01-30T05:55:56;102150.16;;;18.95;42.04
82743;BME280;72483;50.656;7.216;2024-01-30T05:58:23;102154.63;;;18.96;42.16
82743;BME280;72483;50.656;7.216;2024-01-30T06:00:49;102138.75;;;18.96;42.23
82743;BME280;72483;50.656;7.216;2024-01-30T06:03:16;102139.31;;;18.98;42.18
82743;BME280;72483;50.656;7.216;2024-01-30T06:05:43;102138.22;;;18.99;42.11
82743;BME280;72483;50.656;7.216;2024-01-30T06:08:10;102134.31;;;19.00;41.80
82743;BME280;72483;50.656;7.216;2024-01-30T06:10:36;102138.78;;;19.01;41.85
82743;BME280;72483;50.656;7.216;2024-01-30T06:13:03;102135.75;;;19.03;41.79
82743;BME280;72483;50.656;7.216;2024-01-30T06:15:30;102134.63;;;19.04;41.65
82743;BME280;72483;50.656;7.216;2024-01-30T06:17:57;102133.53;;;19.05;42.15
82743;BME280;72483;50.656;7.216;2024-01-30T06:20:24;102139.13;;;19.05;41.67
82743;BME280;72483;50.656;7.216;2024-01-30T06:22:52;102141.66;;;19.06;42.13
82743;BME280;72483;50.656;7.216;2024-01-30T06:25:18;102138.88;;;19.06;41.81
82743;BME280;72483;50.656;7.216;2024-01-30T06:27:45;102132.16;;;19.07;41.96
82743;BME280;72483;50.656;7.216;2024-01-30T06:30:12;102140.28;;;19.09;41.74
82743;BME280;72483;50.656;7.216;2024-01-30T06:32:39;102143.31;;;19.07;41.96
82743;BME280;72483;50.656;7.216;2024-01-30T06:35:06;102145.88;;;19.09;41.81
82743;BME280;72483;50.656;7.216;2024-01-30T06:37:33;102150.63;;;19.08;41.56
82743;BME280;72483;50.656;7.216;2024-01-30T06:40:01;102146.13;;;19.07;42.05
82743;BME280;72483;50.656;7.216;2024-01-30T06:42:27;102143.09;;;19.09;41.80
82743;BME280;72483;50.656;7.216;2024-01-30T06:44:54;102145.88;;;19.09;41.52
82743;BME280;72483;50.656;7.216;2024-01-30T06:47:20;102150.34;;;19.10;41.63
82743;BME280;72483;50.656;7.216;2024-01-30T06:49:47;102150.63;;;19.08;41.99
82743;BME280;72483;50.656;7.216;2024-01-30T06:52:13;102157.03;;;19.09;41.94
82743;BME280;72483;50.656;7.216;2024-01-30T06:54:40;102157.91;;;19.09;41.69
82743;BME280;72483;50.656;7.216;2024-01-30T06:57:08;102161.78;;;19.08;42.28
82743;BME280;72483;50.656;7.216;2024-01-30T06:59:37;102159.00;;;19.08;41.62
82743;BME280;72483;50.656;7.216;2024-01-30T07:02:07;102153.66;;;19.07;42.06
82743;BME280;72483;50.656;7.216;2024-01-30T07:04:33;102148.91;;;19.07;41.90
82743;BME280;72483;50.656;7.216;2024-01-30T07:06:59;102151.13;;;19.05;42.13
82743;BME280;72483;50.656;7.216;2024-01-30T07:09:26;102139.38;;;19.03;41.82
82743;BME280;72483;50.656;7.216;2024-01-30T07:11:53;102144.38;;;19.01;41.40
82743;BME280;72483;50.656;7.216;2024-01-30T07:14:22;102141.34;;;19.03;41.49
82743;BME280;72483;50.656;7.216;2024-01-30T07:16:48;102141.34;;;19.03;41.59
82743;BME280;72483;50.656;7.216;2024-01-30T07:19:15;102143.28;;;19.02;41.81
82743;BME280;72483;50.656;7.216;2024-01-30T07:21:42;102144.38;;;19.01;41.80
82743;BME280;72483;50.656;7.216;2024-01-30T07:24:09;102148.28;;;19.00;42.02
82743;BME280;72483;50.656;7.216;2024-01-30T07:26:35;102142.72;;;19.00;41.56
82743;BME280;72483;50.656;7.216;2024-01-30T07:29:02;102141.84;;;19.00;42.07
82743;BME280;72483;50.656;7.216;2024-01-30T07:31:29;102123.97;;;19.01;41.80
82743;BME280;72483;50.656;7.216;2024-01-30T07:33:56;102125.09;;;19.00;41.68
82743;BME280;72483;50.656;7.216;2024-01-30T07:36:23;102141.84;;;19.00;42.18
82743;BME280;72483;50.656;7.216;2024-01-30T07:38:49;102139.31;;;18.98;41.74
82743;BME280;72483;50.656;7.216;2024-01-30T07:41:16;102138.22;;;18.99;42.30
82743;BME280;72483;50.656;7.216;2024-01-30T07:43:43;102142.94;;;18.99;42.17
82743;BME280;72483;50.656;7.216;2024-01-30T07:46:09;102148.28;;;19.00;42.00
82743;BME280;72483;50.656;7.216;2024-01-30T07:48:37;102151.47;;;19.09;42.14
82743;BME280;72483;50.656;7.216;2024-01-30T07:51:04;102148.72;;;19.14;42.00
82743;BME280;72483;50.656;7.216;2024-01-30T07:53:31;102150.34;;;19.10;42.27
82743;BME280;72483;50.656;7.216;2024-01-30T07:55:57;102157.91;;;19.09;42.87
82743;BME280;72483;50.656;7.216;2024-01-30T07:58:24;102148.66;;;19.09;43.01
82743;BME280;72483;50.656;7.216;2024-01-30T08:00:52;102151.72;;;19.07;43.78
82743;BME280;72483;50.656;7.216;2024-01-30T08:03:19;102158.72;;;19.10;43.76
82743;BME280;72483;50.656;7.216;2024-01-30T08:05:47;102160.09;;;19.07;43.39
82743;BME280;72483;50.656;7.216;2024-01-30T08:08:16;102162.03;;;19.07;43.66
82743;BME280;72483;50.656;7.216;2024-01-30T08:10:42;102158.41;;;19.06;43.66
82743;BME280;72483;50.656;7.216;2024-01-30T08:13:09;102164.25;;;19.05;43.52
82743;BME280;72483;50.656;7.216;2024-01-30T08:15:35;102167.03;;;19.05;43.29
82743;BME280;72483;50.656;7.216;2024-01-30T08:18:02;102167.88;;;19.05;42.90
82743;BME280;72483;50.656;7.216;2024-01-30T08:20:29;102175.41;;;19.05;43.44
82743;BME280;72483;50.656;7.216;2024-01-30T08:22:57;102173.47;;;19.05;42.81
82743;BME280;72483;50.656;7.216;2024-01-30T08:25:25;102184.66;;;19.05;43.19
82743;BME280;72483;50.656;7.216;2024-01-30T08:27:52;102180.44;;;19.03;43.10
82743;BME280;72483;50.656;7.216;2024-01-30T08:30:19;102182.94;;;19.04;43.11
82743;BME280;72483;50.656;7.216;2024-01-30T08:32:45;102174.00;;;19.02;42.89
82743;BME280;72483;50.656;7.216;2024-01-30T08:35:12;102167.56;;;19.02;42.56
82743;BME280;72483;50.656;7.216;2024-01-30T08:37:41;102170.34;;;19.02;42.96
82743;BME280;72483;50.656;7.216;2024-01-30T08:40:10;102172.91;;;19.03;42.95
82743;BME280;72483;50.656;7.216;2024-01-30T08:42:36;102167.56;;;19.02;42.66
82743;BME280;72483;50.656;7.216;2024-01-30T08:45:04;102162.81;;;19.02;42.49
82743;BME280;72483;50.656;7.216;2024-01-30T08:47:30;102160.03;;;19.02;43.02
82743;BME280;72483;50.656;7.216;2024-01-30T08:49:58;102152.75;;;19.01;42.57
82743;BME280;72483;50.656;7.216;2024-01-30T08:52:25;102155.03;;;19.04;42.42
82743;BME280;72483;50.656;7.216;2024-01-30T08:54:51;102158.94;;;19.03;42.87
82743;BME280;72483;50.656;7.216;2024-01-30T08:57:20;102162.81;;;19.02;42.68
82743;BME280;72483;50.656;7.216;2024-01-30T08:59:46;102155.28;;;19.03;42.85
82743;BME280;72483;50.656;7.216;2024-01-30T09:02:13;102164.53;;;19.03;42.79
82743;BME280;72483;50.656;7.216;2024-01-30T09:04:41;102170.09;;;19.03;42.74
82743;BME280;72483;50.656;7.216;2024-01-30T09:07:08;102165.34;;;19.04;42.62
82743;BME280;72483;50.656;7.216;2024-01-30T09:09:35;102170.09;;;19.03;42.73
82743;BME280;72483;50.656;7.216;2024-01-30T09:12:02;102184.06;;;19.03;42.19
82743;BME280;72483;50.656;7.216;2024-01-30T09:14:52;102194.13;;;19.04;42.52
82743;BME280;72483;50.656;7.216;2024-01-30T09:17:18;102191.94;;;19.06;42.29
82743;BME280;72483;50.656;7.216;2024-01-30T09:19:45;102196.41;;;19.07;42.63
82743;BME280;72483;50.656;7.216;2024-01-30T09:22:12;102192.50;;;19.08;42.44
82743;BME280;72483;50.656;7.216;2024-01-30T09:24:39;102199.19;;;19.07;42.58
82743;BME280;72483;50.656;7.216;2024-01-30T09:27:06;102205.63;;;19.08;42.41
82743;BME280;72483;50.656;7.216;2024-01-30T09:29:32;102206.72;;;19.07;42.17
82743;BME280;72483;50.656;7.216;2024-01-30T09:32:01;102221.28;;;19.09;42.15
82743;BME280;72483;50.656;7.216;2024-01-30T09:34:27;102226.59;;;19.10;42.23
82743;BME280;72483;50.656;7.216;2024-01-30T09:36:53;102224.94;;;19.09;42.22
82743;BME280;72483;50.656;7.216;2024-01-30T09:39:20;102219.59;;;19.08;42.45
82743;BME280;72483;50.656;7.216;2024-01-30T09:41:49;102215.09;;;19.07;42.41
82743;BME280;72483;50.656;7.216;2024-01-30T09:44:16;102219.34;;;19.09;41.96
82743;BME280;72483;50.656;7.216;2024-01-30T09:46:43;102218.22;;;19.10;42.21
82743;BME280;72483;50.656;7.216;2024-01-30T09:49:14;102216.03;;;19.12;42.76
82743;BME280;72483;50.656;7.216;2024-01-30T09:51:42;102216.88;;;19.13;43.43
82743;BME280;72483;50.656;7.216;2024-01-30T09:54:09;102223.63;;;19.17;43.18
82743;BME280;72483;50.656;7.216;2024-01-30T09:56:36;102220.25;;;19.15;42.95
82743;BME280;72483;50.656;7.216;2024-01-30T09:59:03;102214.09;;;19.13;43.25
82743;BME280;72483;50.656;7.216;2024-01-30T10:01:29;102226.69;;;19.15;43.13
82743;BME280;72483;50.656;7.216;2024-01-30T10:03:57;102223.88;;;19.15;43.30
82743;BME280;72483;50.656;7.216;2024-01-30T10:06:26;102231.47;;;19.20;42.83
82743;BME280;72483;50.656;7.216;2024-01-30T10:08:54;102230.63;;;19.19;42.89
82743;BME280;72483;50.656;7.216;2024-01-30T10:11:23;102226.41;;;19.17;42.43
82743;BME280;72483;50.656;7.216;2024-01-30T10:13:49;102222.75;;;19.16;42.40
82743;BME280;72483;50.656;7.216;2024-01-30T10:16:16;102219.97;;;19.16;42.64
82743;BME280;72483;50.656;7.216;2024-01-30T10:18:43;102221.94;;;19.16;42.56
82743;BME280;72483;50.656;7.216;2024-01-30T10:21:09;102217.19;;;19.16;42.72
82743;BME280;72483;50.656;7.216;2024-01-30T10:23:38;102221.94;;;19.16;42.77
82743;BME280;72483;50.656;7.216;2024-01-30T10:26:04;102220.78;;;19.12;42.65
82743;BME280;72483;50.656;7.216;2024-01-30T10:28:31;102229.72;;;19.14;42.71
82743;BME280;72483;50.656;7.216;2024-01-30T10:30:58;102229.38;;;19.10;42.51
82743;BME280;72483;50.656;7.216;2024-01-30T10:33:26;102217.97;;;19.12;42.35
82743;BME280;72483;50.656;7.216;2024-01-30T10:35:55;102217.13;;;19.11;42.71
82743;BME280;72483;50.656;7.216;2024-01-30T10:38:25;102221.34;;;19.14;42.26
82743;BME280;72483;50.656;7.216;2024-01-30T10:40:56;102231.16;;;19.16;42.63
82743;BME280;72483;50.656;7.216;2024-01-30T10:43:30;102235.06;;;19.15;43.26
82743;BME280;72483;50.656;7.216;2024-01-30T10:45:58;102238.44;;;19.17;42.92
82743;BME280;72483;50.656;7.216;2024-01-30T10:48:32;102239.53;;;19.16;43.40
82743;BME280;72483;50.656;7.216;2024-01-30T10:51:05;102238.44;;;19.17;42.78
82743;BME280;72483;50.656;7.216;2024-01-30T10:53:32;102239.28;;;19.18;42.79
82743;BME280;72483;50.656;7.216;2024-01-30T10:56:02;102240.13;;;19.18;42.85
82743;BME280;72483;50.656;7.216;2024-01-30T10:58:30;102240.72;;;19.21;42.51
82743;BME280;72483;50.656;7.216;2024-01-30T11:00:56;102237.91;;;19.21;42.94
82743;BME280;72483;50.656;7.216;2024-01-30T11:03:24;102232.31;;;19.21;42.41
82743;BME280;72483;50.656;7.216;2024-01-30T11:05:51;102223.09;;;19.20;42.76
82743;BME280;72483;50.656;7.216;2024-01-30T11:08:23;102220.56;;;19.18;42.62
82743;BME280;72483;50.656;7.216;2024-01-30T11:10:55;102223.38;;;19.18;42.51
82743;BME280;72483;50.656;7.216;2024-01-30T11:13:26;102210.78;;;19.16;42.74
82743;BME280;72483;50.656;7.216;2024-01-30T11:15:53;102213.28;;;19.17;42.69
82743;BME280;72483;50.656;7.216;2024-01-30T11:18:23;102208.81;;;19.16;42.53
82743;BME280;72483;50.656;7.216;2024-01-30T11:20:50;102199.59;;;19.16;42.35
82743;BME280;72483;50.656;7.216;2024-01-30T11:23:17;102196.19;;;19.14;42.27
82743;BME280;72483;50.656;7.216;2024-01-30T11:25:44;102195.09;;;19.15;42.71
82743;BME280;72483;50.656;7.216;2024-01-30T11:28:13;102191.75;;;19.13;42.45
82743;BME280;72483;50.656;7.216;2024-01-30T11:30:42;102198.16;;;19.13;42.83
82743;BME280;72483;50.656;7.216;2024-01-30T11:33:10;102204.84;;;19.12;42.65
82743;BME280;72483;50.656;7.216;2024-01-30T11:35:38;102197.06;;;19.14;42.22
82743;BME280;72483;50.656;7.216;2024-01-30T11:38:06;102198.16;;;19.13;42.71
82743;BME280;72483;50.656;7.216;2024-01-30T11:40:33;102196.47;;;19.12;42.69
82743;BME280;72483;50.656;7.216;2024-01-30T11:43:01;102199.59;;;19.16;42.52
82743;BME280;72483;50.656;7.216;2024-01-30T11:45:28;102203.72;;;19.13;42.43
82743;BME280;72483;50.656;7.216;2024-01-30T11:47:57;102194.00;;;19.16;42.27
82743;BME280;72483;50.656;7.216;2024-01-30T11:50:25;102194.00;;;19.16;42.36
82743;BME280;72483;50.656;7.216;2024-01-30T11:52:52;102193.75;;;19.17;42.24
82743;BME280;72483;50.656;7.216;2024-01-30T11:55:24;102186.44;;;19.16;42.43
82743;BME280;72483;50.656;7.216;2024-01-30T11:57:51;102180.88;;;19.16;42.36
82743;BME280;72483;50.656;7.216;2024-01-30T12:00:18;102192.31;;;19.15;42.44
82743;BME280;72483;50.656;7.216;2024-01-30T12:02:49;102184.25;;;19.18;42.38
82743;BME280;72483;50.656;7.216;2024-01-30T12:05:18;102185.94;;;19.19;42.21
82743;BME280;72483;50.656;7.216;2024-01-30T12:07:45;102190.19;;;19.22;42.27
82743;BME280;72483;50.656;7.216;2024-01-30T12:10:12;102179.81;;;19.23;41.70
82743;BME280;72483;50.656;7.216;2024-01-30T12:12:41;102187.63;;;19.21;42.23
82743;BME280;72483;50.656;7.216;2024-01-30T12:15:08;102187.97;;;19.24;42.15
82743;BME280;72483;50.656;7.216;2024-01-30T12:17:35;102182.94;;;19.26;42.12
82743;BME280;72483;50.656;7.216;2024-01-30T12:20:05;102192.50;;;19.30;42.14
82743;BME280;72483;50.656;7.216;2024-01-30T12:22:36;102181.06;;;19.32;42.04
82743;BME280;72483;50.656;7.216;2024-01-30T12:25:04;102178.84;;;19.34;41.53
82743;BME280;72483;50.656;7.216;2024-01-30T12:27:31;102181.38;;;19.35;41.53
82743;BME280;72483;50.656;7.216;2024-01-30T12:29:57;102174.16;;;19.39;41.80
82743;BME280;72483;50.656;7.216;2024-01-30T12:32:24;102168.84;;;19.38;41.95
82743;BME280;72483;50.656;7.216;2024-01-30T12:34:54;102174.44;;;19.38;42.26
82743;BME280;72483;50.656;7.216;2024-01-30T12:37:21;102169.94;;;19.37;41.60
82743;BME280;72483;50.656;7.216;2024-01-30T12:39:51;102180.03;;;19.38;42.12
82743;BME280;72483;50.656;7.216;2024-01-30T12:42:19;102181.13;;;19.37;41.84
82743;BME280;72483;50.656;7.216;2024-01-30T12:44:47;102169.09;;;19.36;41.57
82743;BME280;72483;50.656;7.216;2024-01-30T12:47:13;102174.69;;;19.36;41.71
82743;BME280;72483;50.656;7.216;2024-01-30T12:49:41;102176.63;;;19.36;41.79